• Join FlightAware (Why Join?)
  • Login
  • US Flag 
06:58PM EDT


 

Airport Tracker/Info


-or-


 

Live Flight TrackerFlight Track Log ✈ UAL4536 ✈ 30-Apr-2013 ✈ KIAH - KCLT

Flight Track Log - Related Links

Times and Time Zones

All times are in EDT time to prevent confusion due to time zone crossing. See the UAL4536 flight status page for this flight to view local times or setup timezone preferences in your user account.

Time Position Orientation Groundspeed Altitude Reporting Facility
EDT Latitude Longitude Course Direction KTS MPH feet Rate Location/Type
02:22PM 29.9594 -95.3414 90° East 170 196 700  Level Houston Center
02:22PM 29.9475 -95.3261 132° Southeast 170 196 1,500 1,500 Climbing Houston Center
02:23PM 29.9311 -95.2606 106° East 228 262 2,900 1,560 Climbing Houston Center
02:24PM 29.9256 -95.1792 94° East 263 303 4,700 1,800 Climbing Houston Center
02:25PM 29.9834 -94.7861 90° East  Level FlightAware Approximate
02:25PM 29.9322 -95.0939 85° East 271 312 6,700  Level Houston Center
02:26PM 29.9833 -94.6493 90° East  Level FlightAware Approximate
02:26PM 29.9389 -95.0064 85° East 288 331 8,700  Level Houston Center
02:27PM 29.9834 -94.5124 90° East  Level FlightAware Approximate
02:27PM 29.9497 -94.8925 84° East 295 339 10,300  Level Houston Center
02:28PM 29.9592 -94.7839 84° East 330 380 11,100 900 Climbing Houston Center
02:29PM 29.9689 -94.6669 84° East 358 412 12,200 1,200 Climbing Houston Center
02:31PM 29.9772 -94.5486 85° East 368 423 13,600 1,260 Climbing Houston Center
02:32PM 29.9869 -94.4231 85° East 374 430 14,900 1,140 Climbing Houston Center
02:33PM 29.9964 -94.3042 85° East 376 433 16,000 1,200 Climbing Houston Center
02:34PM 30.0144 -94.1606 82° East 379 436 17,400 1,440 Climbing Houston Center
02:35PM 30.0292 -94.0408 82° East 379 436 19,000 1,320 Climbing Houston Center
02:36PM 30.0439 -93.9211 82° East 379 436 20,200 1,020 Climbing Houston Center
02:37PM 30.0594 -93.7986 82° East 389 448 21,200 960 Climbing Houston Center
02:38PM 30.0742 -93.6733 82° East 398 458 22,200 1,020 Climbing Houston Center
02:39PM 30.0922 -93.5208 82° East 403 464 23,400 1,020 Climbing Houston Center
02:40PM 30.1064 -93.3922 83° East 408 470 24,400 960 Climbing Houston Center
02:41PM 30.1219 -93.2614 82° East 415 478 25,400 840 Climbing Houston Center
02:42PM 30.1375 -93.1300 82° East 417 480 26,200 840 Climbing Houston Center
02:43PM 30.1664 -92.9706 78° East 424 488 27,200 840 Climbing Houston Center
02:44PM 30.1931 -92.8375 77° East 425 489 28,000 960 Climbing Houston Center
02:46PM 30.2442 -92.5725 77° East 424 488 30,200 1,020 Climbing Houston Center
02:47PM 30.2703 -92.4417 77° East 420 483 31,200 960 Climbing Houston Center
02:48PM 30.2975 -92.2961 78° East 417 480 32,300 1,020 Climbing Houston Center
02:49PM 30.3219 -92.1658 78° East 417 480 33,400 1,080 Climbing Houston Center
02:50PM 30.3478 -92.0381 77° East 411 473 34,600 720 Climbing Houston Center
02:51PM 30.3756 -91.8856 78° East 408 470 35,000 180 Climbing Houston Center
02:52PM 30.4003 -91.7514 78° East 425 489 35,000  Level Houston Center
02:53PM 30.4253 -91.6214 77° East 432 497 35,000  Level Houston Center
02:54PM 30.4497 -91.4878 78° East 427 491 35,000  Level Houston Center
02:55PM 30.4753 -91.3553 77° East 421 484 35,000 -60 Level Houston Center
02:56PM 30.5297 -91.2050 67° East 427 491 34,900  Descending Houston Center
02:57PM 30.5867 -91.0842 61° Northeast 427 491 35,000  Climbing Houston Center
02:58PM 30.6433 -90.9647 61° Northeast 423 487 35,000  Level Houston Center
02:59PM 30.7011 -90.8453 61° Northeast 423 487 35,000  Level Houston Center
03:01PM 30.7572 -90.7256 61° Northeast 423 487 35,000 -60 Level Houston Center
03:02PM 30.8147 -90.6058 61° Northeast 423 487 34,900  Descending Houston Center
03:03PM 30.8817 -90.4617 62° Northeast 422 486 35,000  Climbing Houston Center
03:04PM 30.9383 -90.3414 61° Northeast 423 487 35,000  Level Houston Center
03:05PM 30.9958 -90.2183 61° Northeast 427 491 35,000  Level Houston Center
03:06PM 31.0550 -90.0925 61° Northeast 436 502 35,000  Level Houston Center
03:07PM 31.1144 -89.9653 61° Northeast 444 511 35,000  Level Houston Center
03:08PM 31.1736 -89.8361 62° Northeast 449 517 35,000  Level Houston Center
03:09PM 31.2350 -89.7036 62° Northeast 459 528 35,000  Level Houston Center
03:10PM 31.3311 -89.5619 52° Northeast 474 545 35,000  Level Houston Center
03:11PM 31.4261 -89.4925 32° Northeast 473 544 35,000  Level Houston Center
03:12PM 31.5633 -89.3964 31° Northeast 476 548 35,000  Level Houston Center
03:13PM 31.6764 -89.3144 32° Northeast 478 550 35,000  Level Houston Center
03:13PM 31.7069 -89.2928 31° Northeast 466 536 35,000  Level Memphis Center
03:14PM 31.8211 -89.2083 32° Northeast 473 544 35,000  Level Memphis Center
03:15PM 31.9433 -89.1236 30° Northeast 465 535 35,000  Level Memphis Center
03:16PM 32.0533 -89.0436 32° Northeast 465 535 35,000  Level Memphis Center
03:17PM 32.1631 -88.9633 32° Northeast 465 535 35,000  Level Memphis Center
03:18PM 32.2728 -88.8831 32° Northeast 465 535 35,000  Level Memphis Center
03:19PM 32.3781 -88.7978 34° Northeast 465 535 35,000  Level Memphis Center
03:20PM 32.4433 -88.6711 59° Northeast 448 516 35,000  Level Memphis Center
03:22PM 32.5578 -88.4214 61° Northeast 458 527 35,000  Level Houston Center
03:23PM 32.5825 -88.3747 58° Northeast 443 510 35,000  Level Atlanta Center
03:24PM 32.6458 -88.2372 61° Northeast 456 525 35,000  Level Atlanta Center
03:25PM 32.7086 -88.1069 60° Northeast 456 525 35,000  Level Atlanta Center
03:26PM 32.7694 -87.9667 63° Northeast 456 525 35,000  Level Atlanta Center
03:27PM 32.8175 -87.8278 68° East 461 531 35,000  Level Atlanta Center
03:28PM 32.8511 -87.6858 74° East 456 525 35,000  Level Atlanta Center
03:29PM 32.8908 -87.5367 72° East 451 519 35,000  Level Atlanta Center
03:30PM 32.9283 -87.3922 73° East 456 525 35,000  Level Atlanta Center
03:31PM 32.9656 -87.2450 73° East 456 525 35,000  Level Atlanta Center
03:32PM 32.9986 -87.1025 75° East 449 517 35,000  Level Atlanta Center
03:33PM 33.0356 -86.9553 73° East 456 525 35,000  Level Atlanta Center
03:34PM 33.0742 -86.8103 72° East 459 528 35,000  Level Atlanta Center
03:35PM 33.1089 -86.6625 74° East 459 528 35,000  Level Atlanta Center
03:36PM 33.1453 -86.5100 74° East 447 514 35,000  Level Atlanta Center
03:37PM 33.1794 -86.3669 74° East 453 521 35,000  Level Atlanta Center
03:38PM 33.2156 -86.2214 73° East 453 521 35,000  Level Atlanta Center
03:39PM 33.2514 -86.0708 74° East 466 536 35,000  Level Atlanta Center
03:40PM 33.2853 -85.9225 75° East 460 529 35,000  Level Atlanta Center
03:41PM 33.3250 -85.7667 73° East 455 524 35,000  Level Atlanta Center
03:42PM 33.3583 -85.6181 75° East 455 524 35,000  Level Atlanta Center
03:43PM 33.3936 -85.4669 74° East 455 524 35,000  Level Atlanta Center
03:44PM 33.4244 -85.3181 76° East 455 524 35,000  Level Atlanta Center
03:45PM 33.4614 -85.1742 73° East 455 524 35,000  Level Atlanta Center
03:46PM 33.4939 -85.0228 76° East 461 531 35,000  Level Atlanta Center
03:47PM 33.5242 -84.8911 75° East 455 524 35,000  Level Atlanta Center
03:48PM 33.5586 -84.7417 75° East 455 524 35,000  Level Atlanta Center
03:49PM 33.5928 -84.5900 75° East 455 524 35,000  Level Atlanta Center
03:50PM 33.6203 -84.4431 77° East 455 524 35,000  Level Atlanta Center
03:51PM 33.6644 -84.3008 70° East 455 524 35,000  Level Atlanta Center
03:52PM 33.7067 -84.1536 71° East 460 529 35,000  Level Atlanta Center
03:53PM 33.7461 -84.0139 71° East 452 520 35,000  Level Atlanta Center
03:54PM 33.7858 -83.8789 70° East 434 499 35,000  Level Atlanta Center
03:55PM 33.8253 -83.7386 71° East 434 499 35,000 -60 Level Atlanta Center
03:56PM 33.8644 -83.5986 71° East 434 499 34,900 -1,020 Descending Atlanta Center
03:57PM 33.9014 -83.4581 72° East 439 505 33,000 -2,040 Descending Atlanta Center
03:58PM 33.9403 -83.3228 71° East 439 505 30,900 -1,920 Descending Atlanta Center
03:59PM 33.9728 -83.1922 73° East 415 478 29,200 -960 Descending Atlanta Center
04:00PM 34.0094 -83.0614 71° East 384 442 29,000 -120 Descending Atlanta Center
04:01PM 34.0503 -82.9406 68° East 376 433 29,000  Level Atlanta Center
04:02PM 34.1075 -82.8219 60° Northeast 376 433 29,000  Level Atlanta Center
04:03PM 34.1647 -82.7031 60° Northeast 403 464 29,000  Level Atlanta Center
04:04PM 34.2178 -82.6044 57° Northeast 418 481 29,000 -480 Level Atlanta Center
04:05PM 34.2808 -82.4700 60° Northeast 418 481 28,100 -1,380 Descending Atlanta Center
04:06PM 34.3419 -82.3506 58° Northeast 418 481 26,300 -1,980 Descending Atlanta Center
04:07PM 34.3967 -82.2364 60° Northeast 405 466 24,200 -2,160 Descending Atlanta Center
04:08PM 34.4494 -82.1319 58° Northeast 384 442 22,000 -2,160 Descending Atlanta Center
04:09PM 34.5039 -82.0172 60° Northeast 384 442 19,900 -2,100 Descending Atlanta Center
04:10PM 34.5603 -81.9025 59° Northeast 384 442 17,800 -2,100 Descending Atlanta Center
04:11PM 34.6147 -81.7900 60° Northeast 384 442 15,700 -2,280 Descending Atlanta Center
04:11PM 34.6550 -81.7081 59° Northeast 378 435 14,100 -2,220 Descending Atlanta Center
04:12PM 34.6692 -81.6825 56° Northeast 384 442 13,500 -1,920 Descending Atlanta Center
04:12PM 34.7111 -81.5928 60° Northeast 345 397 12,000 -1,500 Descending Atlanta Center
04:13PM 34.7172 -81.5825 54° Northeast 358 412 12,000  Level Atlanta Center
04:13PM 34.7597 -81.5131 53° Northeast 287 330 12,000 -120 Level Atlanta Center
04:14PM 34.7678 -81.5025 47° Northeast 314 361 11,900  Descending Atlanta Center
04:14PM 34.8164 -81.4406 46° Northeast 290 334 12,000 -60 Climbing Atlanta Center
04:15PM 34.8653 -81.3731 49° Northeast 291 335 11,800 -420 Descending Atlanta Center
04:16PM 34.8775 -81.3600 41° Northeast 289 333 11,500 -1,200 Descending Atlanta Center
04:16PM 34.9239 -81.2978 48° Northeast 286 329 10,500 -840 Descending Atlanta Center
04:18PM 34.9869 -81.2169 46° Northeast 280 322 10,000 -300 Descending Atlanta Center
04:18PM 35.0275 -81.1675 45° Northeast 273 314 10,000  Level Atlanta Center
04:19PM 35.0436 -81.1467 47° Northeast 273 314 10,000  Level Atlanta Center
04:19PM 35.0800 -81.0972 48° Northeast 278 320 10,000  Level Atlanta Center
04:20PM 35.0964 -81.0789 42° Northeast 280 322 10,000 -300 Level Atlanta Center
04:20PM 35.1397 -81.0644 15° North 285 328 9,800 -600 Descending Atlanta Center
04:21PM 35.1733 -81.0683 355° North 272 313 9,400 -1,440 Descending Atlanta Center
04:21PM 35.2317 -81.0739 356° North 264 304 8,100 -1,740 Descending Atlanta Center
04:22PM 35.3050 -81.0789 357° North 263 303 6,300 -1,740 Descending Atlanta Center
04:24PM 35.3822 -81.0789 360° North 255 293 4,400 -1,200 Descending Atlanta Center
04:25PM 35.3908 -81.0044 82° East 235 270 3,800 -600 Descending Atlanta Center